This is the latest recevied weather packets stored in our database for station/object OK1FET-4. If no packets are shown the sender has not sent any weather packets the latest 1 day(s).
| Time | Temp. | Humidity | Pressure | Rain* | Wind** | Luminosity | Snow |
|---|---|---|---|---|---|---|---|
| 1778008905 | 17.22° C | 59% | 1004.7 hPa | - | - | - | - |
| 1778008304 | 17.22° C | 58% | 1004.4 hPa | - | - | - | - |
| 1778008304 | 17.22° C | 58% | 1004.4 hPa | - | - | - | - |
| 1778008003 | 17.22° C | 58% | 1004.4 hPa | - | - | - | - |
| 1778008003 | 17.22° C | 58% | 1004.4 hPa | - | - | - | - |
| 1778008003 | 17.22° C | 58% | 1004.4 hPa | - | - | - | - |
| 1778007101 | 17.22° C | 57% | 1004.4 hPa | - | - | - | - |
| 1778006199 | 17.22° C | 57% | 1004.5 hPa | - | - | - | - |
| 1778006199 | 17.22° C | 57% | 1004.5 hPa | - | - | - | - |
| 1778006199 | 17.22° C | 57% | 1004.5 hPa | - | - | - | - |
| 1778004996 | 17.78° C | 57% | 1004.2 hPa | - | - | - | - |
| 1778004695 | 17.78° C | 57% | 1004.2 hPa | - | - | - | - |
| 1778003492 | 18.33° C | 57% | 1004.4 hPa | - | - | - | - |
| 1778003492 | 18.33° C | 57% | 1004.4 hPa | - | - | - | - |
| 1778003492 | 18.33° C | 57% | 1004.4 hPa | - | - | - | - |
| 1778002890 | 18.33° C | 57% | 1004.6 hPa | - | - | - | - |
| 1778002890 | 18.33° C | 57% | 1004.6 hPa | - | - | - | - |
| 1778000783 | 20° C | 53% | 1005 hPa | - | - | - | - |
| 1777998977 | 20.56° C | 51% | 1005 hPa | - | - | - | - |
| 1777998977 | 20.56° C | 51% | 1005 hPa | - | - | - | - |
| 1777998676 | 21.11° C | 50% | 1005.1 hPa | - | - | - | - |
| 1777998676 | 21.11° C | 50% | 1005.1 hPa | - | - | - | - |
| 1777998676 | 21.11° C | 50% | 1005.1 hPa | - | - | - | - |
| 1777998375 | 21.67° C | 49% | 1005.2 hPa | - | - | - | - |
| 1777998375 | 21.67° C | 49% | 1005.2 hPa | - | - | - | - |
* Rain since midnight (hover to see other rain measurements)
** Current wind speed in m/s (hover to see current wind gust speed)